createdAt,value
2023-01-29T00:01:12.274Z,23.10
2023-01-29T00:03:40.699Z,23.20
2023-01-29T00:06:09.988Z,23.30
2023-01-29T00:08:39.697Z,23.40
2023-01-29T00:11:09.469Z,23.50
2023-01-29T00:13:37.916Z,23.40
2023-01-29T00:16:06.383Z,23.20
2023-01-29T00:18:34.589Z,23.00
2023-01-29T00:21:02.975Z,22.90
2023-01-29T00:23:31.449Z,22.80
2023-01-29T00:26:01.092Z,22.70
2023-01-29T00:28:29.399Z,22.60
2023-01-29T00:30:57.784Z,22.50
2023-01-29T00:33:26.143Z,22.50
2023-01-29T00:35:54.461Z,22.50
2023-01-29T00:38:22.566Z,22.50
2023-01-29T00:40:51.001Z,22.40
2023-01-29T00:43:19.188Z,22.40
2023-01-29T00:45:47.451Z,22.30
2023-01-29T00:48:15.575Z,22.50
2023-01-29T00:50:43.919Z,22.70
2023-01-29T00:53:12.153Z,22.90
2023-01-29T00:55:40.437Z,23.00
2023-01-29T00:58:08.641Z,23.10
2023-01-29T01:00:36.950Z,23.20
2023-01-29T01:03:05.196Z,23.20
2023-01-29T01:05:33.440Z,23.30
2023-01-29T01:08:02.667Z,23.50
2023-01-29T01:10:33.307Z,23.50
2023-01-29T01:13:07.117Z,23.20
2023-01-29T01:15:38.561Z,23.00
2023-01-29T01:18:07.167Z,22.80
2023-01-29T01:20:36.670Z,22.70
2023-01-29T01:23:05.196Z,22.60
2023-01-29T01:25:35.010Z,22.60
2023-01-29T01:28:03.314Z,22.50
2023-01-29T01:30:31.522Z,22.40
2023-01-29T01:33:00.028Z,22.40
2023-01-29T01:35:28.426Z,22.40
2023-01-29T01:37:56.624Z,22.30
2023-01-29T01:40:26.280Z,22.40
2023-01-29T01:43:00.127Z,22.70
2023-01-29T01:45:37.640Z,22.80
2023-01-29T01:48:08.310Z,22.90
2023-01-29T01:50:57.114Z,23.00
2023-01-29T01:53:36.350Z,23.10
2023-01-29T01:56:11.788Z,23.20
2023-01-29T01:58:59.578Z,23.30
2023-01-29T02:01:28.284Z,23.40
2023-01-29T02:04:16.498Z,23.50
2023-01-29T02:06:45.483Z,23.30
2023-01-29T02:09:26.199Z,23.00
2023-01-29T02:11:54.401Z,22.80
2023-01-29T02:14:22.885Z,22.70
2023-01-29T02:16:51.326Z,22.60
2023-01-29T02:19:40.335Z,22.60
2023-01-29T02:22:37.873Z,22.40
2023-01-29T02:25:37.468Z,22.50
2023-01-29T02:28:46.081Z,22.70
2023-01-29T02:31:30.884Z,22.90
2023-01-29T02:34:31.633Z,23.00
2023-01-29T02:37:08.567Z,23.10
2023-01-29T02:39:54.324Z,23.20
2023-01-29T02:42:25.522Z,23.30
2023-01-29T02:45:00.376Z,23.40
2023-01-29T02:47:43.183Z,23.50
2023-01-29T02:50:33.423Z,23.40
2023-01-29T02:53:16.523Z,23.10
2023-01-29T02:55:52.218Z,22.90
2023-01-29T02:58:46.187Z,22.80
2023-01-29T03:01:27.585Z,22.70
2023-01-29T03:03:59.695Z,22.60
2023-01-29T03:06:36.250Z,22.60
2023-01-29T03:09:14.652Z,22.50
2023-01-29T03:11:47.656Z,22.50
2023-01-29T03:14:21.740Z,22.40
2023-01-29T03:16:54.505Z,22.40
2023-01-29T03:19:41.996Z,22.40
2023-01-29T03:22:21.439Z,22.50
2023-01-29T03:25:00.281Z,22.70
2023-01-29T03:27:55.145Z,22.90
2023-01-29T03:30:25.932Z,23.00
2023-01-29T03:33:14.648Z,23.10
2023-01-29T03:36:07.003Z,23.20
2023-01-29T03:38:35.300Z,23.20
2023-01-29T03:41:09.460Z,23.40
2023-01-29T03:43:47.468Z,23.50
2023-01-29T03:46:52.134Z,23.50
2023-01-29T03:49:54.266Z,23.20
2023-01-29T03:53:11.653Z,22.90
2023-01-29T03:56:02.843Z,22.70
2023-01-29T03:58:35.295Z,22.60
2023-01-29T04:01:15.491Z,22.50
2023-01-29T04:03:55.230Z,22.50
2023-01-29T04:06:27.093Z,22.40
2023-01-29T04:09:56.154Z,22.60
2023-01-29T04:12:32.501Z,22.80
2023-01-29T04:15:02.891Z,22.90
2023-01-29T04:17:43.635Z,23.00
2023-01-29T04:20:20.148Z,23.10
2023-01-29T04:22:50.805Z,23.20
2023-01-29T04:25:30.743Z,23.30
2023-01-29T04:28:01.971Z,23.40
2023-01-29T04:30:43.807Z,23.50
2023-01-29T04:33:35.941Z,23.30
2023-01-29T04:36:26.002Z,23.10
2023-01-29T04:39:13.517Z,22.90
2023-01-29T04:42:03.383Z,22.70
2023-01-29T04:44:48.544Z,22.60
2023-01-29T04:47:50.949Z,22.50
2023-01-29T04:50:31.066Z,22.50
2023-01-29T04:53:02.227Z,22.70
2023-01-29T04:55:39.754Z,22.80
2023-01-29T04:58:19.958Z,22.90
2023-01-29T05:00:53.552Z,23.00
2023-01-29T05:03:26.432Z,23.10
2023-01-29T05:05:57.897Z,23.20
2023-01-29T05:08:27.774Z,23.30
2023-01-29T05:10:58.176Z,23.40
2023-01-29T05:13:29.449Z,23.50
2023-01-29T05:16:26.753Z,23.40
2023-01-29T05:18:55.326Z,23.10
2023-01-29T05:21:24.864Z,22.80
2023-01-29T05:24:13.380Z,22.70
2023-01-29T05:26:42.626Z,22.70
2023-01-29T05:29:13.295Z,22.60
2023-01-29T05:31:44.339Z,22.50
2023-01-29T05:34:12.617Z,22.70
2023-01-29T05:36:40.920Z,22.80
2023-01-29T05:39:09.274Z,22.90
2023-01-29T05:41:37.397Z,23.00
2023-01-29T05:44:05.804Z,23.10
2023-01-29T05:46:36.280Z,23.10
2023-01-29T05:49:05.091Z,23.20
2023-01-29T05:51:32.900Z,23.30
2023-01-29T05:54:01.203Z,23.40
2023-01-29T05:56:29.446Z,23.50
2023-01-29T05:58:57.982Z,23.40
2023-01-29T06:01:27.344Z,23.20
2023-01-29T06:03:55.566Z,22.90
2023-01-29T06:06:23.716Z,22.80
2023-01-29T06:08:51.943Z,22.60
2023-01-29T06:11:20.150Z,22.60
2023-01-29T06:13:48.768Z,22.50
2023-01-29T06:16:17.762Z,22.40
2023-01-29T06:18:45.926Z,22.60
2023-01-29T06:21:15.187Z,22.80
2023-01-29T06:23:43.644Z,22.90
2023-01-29T06:26:14.624Z,23.00
2023-01-29T06:28:44.018Z,23.00
2023-01-29T06:31:27.427Z,23.20
2023-01-29T06:34:01.602Z,23.20
2023-01-29T06:36:29.678Z,23.30
2023-01-29T06:38:57.972Z,23.40
2023-01-29T06:41:26.952Z,23.50
2023-01-29T06:43:55.061Z,23.40
2023-01-29T06:46:23.551Z,23.20
2023-01-29T06:48:51.796Z,22.90
2023-01-29T06:51:20.070Z,22.80
2023-01-29T06:53:48.381Z,22.60
2023-01-29T06:56:16.468Z,22.60
2023-01-29T06:58:44.691Z,22.50
2023-01-29T07:01:25.382Z,22.50
2023-01-29T07:04:02.069Z,22.70
2023-01-29T07:06:30.850Z,22.80
2023-01-29T07:08:59.234Z,22.90
2023-01-29T07:11:27.522Z,23.00
2023-01-29T07:13:55.894Z,23.00
2023-01-29T07:16:24.214Z,23.10
2023-01-29T07:18:52.571Z,23.20
2023-01-29T07:21:20.915Z,23.30
2023-01-29T07:23:49.139Z,23.30
2023-01-29T07:26:17.876Z,23.40
2023-01-29T07:28:46.343Z,23.50
2023-01-29T07:31:15.028Z,23.30
2023-01-29T07:33:46.976Z,23.00
2023-01-29T07:36:15.538Z,22.80
2023-01-29T07:38:43.853Z,22.70
2023-01-29T07:41:12.702Z,22.60
2023-01-29T07:43:41.049Z,22.50
2023-01-29T07:46:09.735Z,22.60
2023-01-29T07:48:38.103Z,22.80
2023-01-29T07:51:06.570Z,22.90
2023-01-29T07:53:34.918Z,23.00
2023-01-29T07:56:03.814Z,23.00
2023-01-29T07:58:32.118Z,23.10
2023-01-29T08:01:00.280Z,23.20
2023-01-29T08:03:28.624Z,23.20
2023-01-29T08:05:58.834Z,23.40
2023-01-29T08:08:27.088Z,23.50
2023-01-29T08:10:55.348Z,23.50
2023-01-29T08:13:23.858Z,23.30
2023-01-29T08:15:52.035Z,23.00
2023-01-29T08:18:20.340Z,22.90
2023-01-29T08:20:48.733Z,22.70
2023-01-29T08:23:17.330Z,22.50
2023-01-29T08:25:45.647Z,22.60
2023-01-29T08:28:13.903Z,22.70
2023-01-29T08:30:42.342Z,22.80
2023-01-29T08:33:11.020Z,23.00
2023-01-29T08:35:39.005Z,23.10
2023-01-29T08:38:07.302Z,23.20
2023-01-29T08:40:35.926Z,23.20
2023-01-29T08:43:08.995Z,23.40
2023-01-29T08:45:40.424Z,23.70
2023-01-29T08:48:10.104Z,23.90
2023-01-29T08:50:38.777Z,24.00
2023-01-29T08:53:09.059Z,24.20
2023-01-29T08:55:39.300Z,24.30
2023-01-29T08:58:12.347Z,24.40
2023-01-29T09:00:40.783Z,24.50
2023-01-29T09:03:09.031Z,24.50
2023-01-29T09:05:38.643Z,24.60
2023-01-29T09:08:11.965Z,24.60
2023-01-29T09:10:40.755Z,24.60
2023-01-29T09:13:09.067Z,24.60
2023-01-29T09:15:37.495Z,24.40
2023-01-29T09:18:06.237Z,24.30
2023-01-29T09:20:34.231Z,24.30
2023-01-29T09:23:07.472Z,24.30
2023-01-29T09:25:38.021Z,24.30
2023-01-29T09:28:06.577Z,24.30
2023-01-29T09:30:35.038Z,24.30
2023-01-29T09:33:03.251Z,24.30
2023-01-29T09:35:31.552Z,24.40
2023-01-29T09:38:00.292Z,24.40
2023-01-29T09:41:00.693Z,24.40
2023-01-29T09:43:48.451Z,24.40
2023-01-29T09:46:42.413Z,24.40
2023-01-29T09:49:21.643Z,24.40
2023-01-29T09:52:13.240Z,24.50
2023-01-29T09:55:20.033Z,24.60
2023-01-29T09:58:05.712Z,24.70
2023-01-29T10:01:14.396Z,24.80
2023-01-29T10:03:48.855Z,24.90
2023-01-29T10:06:44.893Z,25.00
2023-01-29T10:09:43.716Z,25.00
2023-01-29T10:12:36.037Z,25.00
2023-01-29T10:15:41.784Z,25.10
2023-01-29T10:18:22.335Z,25.20
2023-01-29T10:21:27.417Z,25.20
2023-01-29T10:24:20.690Z,25.20
2023-01-29T10:26:50.093Z,25.20
2023-01-29T10:29:30.923Z,25.20
2023-01-29T10:32:03.323Z,25.30
2023-01-29T10:34:41.944Z,25.30
2023-01-29T10:37:27.431Z,25.30
2023-01-29T10:39:55.853Z,25.30
2023-01-29T10:42:30.554Z,25.40
2023-01-29T10:45:01.804Z,25.40
2023-01-29T10:47:59.699Z,25.40
2023-01-29T10:51:07.134Z,25.40
2023-01-29T10:54:01.544Z,25.40
2023-01-29T10:56:45.113Z,25.40
2023-01-29T10:59:51.560Z,25.40
2023-01-29T11:02:21.060Z,25.50
2023-01-29T11:04:50.143Z,25.60
2023-01-29T11:07:20.546Z,25.60
2023-01-29T11:10:05.555Z,25.60
2023-01-29T11:12:35.478Z,25.60
2023-01-29T11:15:21.665Z,25.70
2023-01-29T11:18:12.272Z,25.70
2023-01-29T11:20:42.543Z,25.70
2023-01-29T11:23:40.320Z,25.70
2023-01-29T11:26:13.229Z,25.70
2023-01-29T11:28:47.498Z,25.70
2023-01-29T11:31:27.893Z,25.70
2023-01-29T11:34:22.144Z,25.80
2023-01-29T11:37:02.100Z,25.80
2023-01-29T11:39:32.444Z,25.70
2023-01-29T11:42:03.725Z,25.80
2023-01-29T11:44:41.626Z,25.80
2023-01-29T11:47:21.689Z,25.80
2023-01-29T11:50:03.834Z,25.80
2023-01-29T11:52:41.800Z,25.70
2023-01-29T11:55:24.680Z,25.20
2023-01-29T11:57:59.204Z,24.80
2023-01-29T12:00:34.193Z,24.50
2023-01-29T12:03:14.913Z,24.40
2023-01-29T12:05:54.504Z,24.20
2023-01-29T12:08:24.809Z,24.10
2023-01-29T12:11:07.330Z,23.90
2023-01-29T12:13:35.899Z,23.90
2023-01-29T12:16:31.484Z,23.80
2023-01-29T12:19:02.497Z,23.60
2023-01-29T12:21:58.506Z,23.60
2023-01-29T12:24:35.796Z,23.50
2023-01-29T12:27:24.321Z,23.40
2023-01-29T12:30:08.089Z,23.40
2023-01-29T12:32:57.312Z,23.30
2023-01-29T12:35:37.036Z,23.20
2023-01-29T12:38:19.823Z,23.20
2023-01-29T12:40:52.837Z,23.20
2023-01-29T12:43:28.482Z,23.20
2023-01-29T12:45:59.261Z,23.10
2023-01-29T12:48:34.719Z,23.10
2023-01-29T12:51:11.015Z,23.00
2023-01-29T12:53:40.977Z,23.10
2023-01-29T12:56:18.926Z,22.90
2023-01-29T12:58:54.120Z,22.90
2023-01-29T13:01:41.587Z,22.90
2023-01-29T13:04:17.140Z,22.90
2023-01-29T13:06:52.059Z,22.80
2023-01-29T13:09:33.493Z,22.80
2023-01-29T13:12:24.085Z,22.80
2023-01-29T13:15:10.785Z,22.80
2023-01-29T13:17:47.193Z,22.70
2023-01-29T13:20:23.692Z,22.70
2023-01-29T13:22:56.600Z,22.70
2023-01-29T13:25:25.198Z,22.70
2023-01-29T13:27:54.313Z,22.70
2023-01-29T13:30:28.527Z,22.70
2023-01-29T13:33:00.177Z,22.60
2023-01-29T13:35:29.411Z,22.60
2023-01-29T13:37:58.033Z,22.60
2023-01-29T13:40:30.868Z,22.60
2023-01-29T13:43:00.675Z,22.60
2023-01-29T13:45:45.378Z,22.50
2023-01-29T13:48:31.960Z,22.50
2023-01-29T13:51:10.317Z,22.50
2023-01-29T13:53:41.792Z,22.50
2023-01-29T13:56:34.286Z,22.50
2023-01-29T13:59:06.531Z,22.50
2023-01-29T14:01:50.029Z,22.50
2023-01-29T14:04:21.417Z,22.50
2023-01-29T14:06:54.828Z,22.50
2023-01-29T14:09:46.311Z,22.50
2023-01-29T14:12:23.567Z,22.40
2023-01-29T14:14:58.018Z,22.40
2023-01-29T14:17:27.596Z,22.40
2023-01-29T14:20:16.952Z,22.40
2023-01-29T14:22:45.587Z,22.40
2023-01-29T14:25:20.071Z,22.30
2023-01-29T14:27:49.607Z,22.30
2023-01-29T14:30:19.546Z,22.30
2023-01-29T14:32:50.440Z,22.30
2023-01-29T14:35:23.642Z,22.20
2023-01-29T14:37:55.949Z,22.30
2023-01-29T14:40:26.534Z,22.30
2023-01-29T14:43:16.881Z,22.30
2023-01-29T14:45:45.157Z,22.30
2023-01-29T14:48:13.572Z,22.30
2023-01-29T14:50:46.582Z,22.30
2023-01-29T14:53:47.834Z,22.20
2023-01-29T14:57:02.058Z,22.30
2023-01-29T14:59:33.065Z,22.20
2023-01-29T15:02:24.693Z,22.30
2023-01-29T15:04:58.673Z,22.30
2023-01-29T15:07:39.743Z,22.20
2023-01-29T15:10:22.750Z,22.20
2023-01-29T15:13:40.893Z,22.20
2023-01-29T15:16:45.696Z,22.20
2023-01-29T15:19:36.315Z,22.20
2023-01-29T15:22:04.603Z,22.20
2023-01-29T15:24:33.056Z,22.30
2023-01-29T15:27:02.066Z,22.30
2023-01-29T15:29:30.718Z,22.30
2023-01-29T15:31:59.534Z,22.30
2023-01-29T15:34:28.038Z,22.30
2023-01-29T15:36:56.290Z,22.30
2023-01-29T15:39:25.784Z,22.30
2023-01-29T15:42:15.707Z,22.30
2023-01-29T15:44:47.139Z,22.30
2023-01-29T15:47:16.227Z,22.20
2023-01-29T15:49:47.377Z,22.30
2023-01-29T15:52:20.899Z,22.30
2023-01-29T15:54:49.415Z,22.30
2023-01-29T15:57:29.915Z,22.20
2023-01-29T15:59:59.284Z,22.30
2023-01-29T16:02:36.906Z,22.30
2023-01-29T16:05:16.736Z,22.30
2023-01-29T16:07:46.286Z,22.30
2023-01-29T16:10:23.372Z,22.30
2023-01-29T16:12:52.989Z,22.30
2023-01-29T16:15:35.173Z,22.30
2023-01-29T16:18:19.880Z,22.40
2023-01-29T16:20:52.808Z,22.30
2023-01-29T16:23:27.305Z,22.40
2023-01-29T16:25:57.714Z,22.40
2023-01-29T16:28:26.055Z,22.40
2023-01-29T16:31:04.122Z,22.30
2023-01-29T16:33:38.583Z,22.40
2023-01-29T16:36:29.550Z,22.40
2023-01-29T16:39:07.433Z,22.40
2023-01-29T16:41:38.901Z,22.40
2023-01-29T16:44:29.814Z,22.40
2023-01-29T16:47:06.472Z,22.40
2023-01-29T16:49:34.915Z,22.40
2023-01-29T16:52:30.425Z,22.40
2023-01-29T16:55:22.758Z,22.40
2023-01-29T16:57:55.964Z,22.40
2023-01-29T17:00:30.144Z,22.30
2023-01-29T17:03:07.915Z,22.30
2023-01-29T17:05:38.483Z,22.40
2023-01-29T17:08:07.407Z,22.40
2023-01-29T17:10:36.451Z,22.30
2023-01-29T17:13:07.908Z,22.30
2023-01-29T17:15:42.475Z,22.30
2023-01-29T17:18:21.257Z,22.30
2023-01-29T17:20:50.243Z,22.30
2023-01-29T17:23:18.450Z,22.40
2023-01-29T17:25:47.919Z,22.40
2023-01-29T17:28:18.061Z,22.40
2023-01-29T17:30:56.698Z,22.40
2023-01-29T17:33:34.135Z,22.30
2023-01-29T17:36:02.421Z,22.40
2023-01-29T17:38:30.689Z,22.40
2023-01-29T17:41:07.156Z,22.30
2023-01-29T17:43:35.729Z,22.40
2023-01-29T17:46:04.137Z,22.40
2023-01-29T17:48:32.649Z,22.40
2023-01-29T17:51:04.907Z,22.40
2023-01-29T17:53:44.799Z,22.40
2023-01-29T17:56:19.402Z,22.40
2023-01-29T17:58:47.786Z,22.40
2023-01-29T18:01:16.704Z,22.40
2023-01-29T18:03:45.013Z,22.40
2023-01-29T18:06:25.801Z,22.40
2023-01-29T18:08:54.008Z,22.30
2023-01-29T18:11:22.358Z,22.30
2023-01-29T18:13:50.928Z,22.30
2023-01-29T18:16:19.265Z,22.30
2023-01-29T18:18:47.573Z,22.20
2023-01-29T18:21:15.833Z,22.30
2023-01-29T18:23:44.598Z,22.20
2023-01-29T18:26:13.559Z,22.20
2023-01-29T18:28:41.919Z,22.20
2023-01-29T18:31:12.928Z,22.20
2023-01-29T18:33:42.096Z,22.20
2023-01-29T18:36:10.423Z,22.20
2023-01-29T18:38:38.834Z,22.20
2023-01-29T18:41:08.634Z,22.20
2023-01-29T18:43:40.758Z,22.10
2023-01-29T18:46:11.692Z,22.10
2023-01-29T18:48:42.663Z,22.10
2023-01-29T18:51:11.522Z,22.10
2023-01-29T18:53:39.891Z,22.10
2023-01-29T18:56:08.668Z,22.10
2023-01-29T18:58:37.472Z,22.10
2023-01-29T19:01:07.675Z,22.00
2023-01-29T19:03:36.671Z,22.10
2023-01-29T19:06:06.881Z,22.10
2023-01-29T19:08:36.909Z,22.00
2023-01-29T19:11:05.443Z,22.00
2023-01-29T19:13:35.425Z,22.00
2023-01-29T19:16:08.247Z,22.00
2023-01-29T19:18:36.995Z,22.00
2023-01-29T19:21:10.016Z,22.20
2023-01-29T19:23:38.860Z,22.40
2023-01-29T19:26:07.600Z,22.60
2023-01-29T19:28:35.699Z,22.70
2023-01-29T19:31:04.111Z,22.90
2023-01-29T19:33:32.489Z,23.00
2023-01-29T19:36:01.353Z,23.10
2023-01-29T19:38:29.949Z,23.30
2023-01-29T19:41:00.766Z,23.40
2023-01-29T19:43:32.685Z,23.30
2023-01-29T19:46:02.389Z,23.10
2023-01-29T19:48:30.592Z,22.90
2023-01-29T19:51:02.071Z,22.80
2023-01-29T19:53:30.867Z,22.80
2023-01-29T19:56:04.542Z,23.30
2023-01-29T19:58:33.415Z,23.80
2023-01-29T20:01:05.007Z,24.00
2023-01-29T20:03:33.747Z,24.30
2023-01-29T20:06:26.321Z,24.40
2023-01-29T20:08:54.668Z,24.50
2023-01-29T20:11:24.311Z,24.10
2023-01-29T20:13:54.656Z,23.80
2023-01-29T20:16:23.412Z,23.50
2023-01-29T20:18:51.338Z,23.30
2023-01-29T20:21:23.619Z,23.20
2023-01-29T20:23:53.082Z,23.10
2023-01-29T20:26:21.930Z,23.00
2023-01-29T20:28:50.560Z,22.90
2023-01-29T20:31:18.906Z,22.90
2023-01-29T20:33:47.217Z,22.80
2023-01-29T20:36:15.876Z,22.80
2023-01-29T20:38:43.797Z,22.70
2023-01-29T20:41:17.589Z,22.70
2023-01-29T20:43:47.182Z,22.70
2023-01-29T20:46:15.624Z,22.60
2023-01-29T20:48:44.077Z,22.60
2023-01-29T20:51:15.532Z,22.50
2023-01-29T20:53:46.018Z,22.50
2023-01-29T20:56:16.788Z,22.50
2023-01-29T20:58:45.763Z,22.50
2023-01-29T21:01:15.337Z,22.50
2023-01-29T21:03:43.991Z,22.40
2023-01-29T21:06:12.792Z,22.40
2023-01-29T21:08:41.345Z,22.40
2023-01-29T21:11:10.919Z,22.40
2023-01-29T21:13:39.709Z,22.40
2023-01-29T21:16:07.872Z,22.30
2023-01-29T21:18:36.400Z,22.40
2023-01-29T21:21:05.475Z,22.40
2023-01-29T21:23:33.823Z,22.40
2023-01-29T21:26:03.871Z,22.30
2023-01-29T21:28:32.779Z,22.30
2023-01-29T21:31:07.743Z,22.30
2023-01-29T21:33:36.419Z,22.30
2023-01-29T21:36:05.380Z,22.30
2023-01-29T21:38:33.701Z,22.30
2023-01-29T21:41:04.706Z,22.30
2023-01-29T21:43:33.177Z,22.20
2023-01-29T21:46:03.992Z,22.20
2023-01-29T21:48:32.450Z,22.20
2023-01-29T21:51:00.755Z,22.20
2023-01-29T21:53:28.985Z,22.20
2023-01-29T21:56:04.901Z,22.20
2023-01-29T21:58:33.856Z,22.20
2023-01-29T22:01:28.094Z,22.20
2023-01-29T22:03:50.586Z,22.10
2023-01-29T22:06:18.850Z,22.30
2023-01-29T22:08:49.468Z,22.50
2023-01-29T22:11:18.594Z,22.70
2023-01-29T22:13:47.125Z,22.80
2023-01-29T22:16:17.173Z,23.00
2023-01-29T22:18:45.613Z,23.10
2023-01-29T22:21:13.898Z,23.20
2023-01-29T22:23:42.292Z,23.30
2023-01-29T22:26:11.627Z,23.40
2023-01-29T22:28:39.978Z,23.30
2023-01-29T22:31:08.488Z,23.20
2023-01-29T22:33:37.191Z,23.00
2023-01-29T22:36:05.332Z,22.80
2023-01-29T22:38:33.505Z,22.70
2023-01-29T22:41:02.144Z,22.60
2023-01-29T22:43:30.703Z,22.60
2023-01-29T22:45:58.893Z,22.50
2023-01-29T22:48:27.304Z,22.50
2023-01-29T22:50:59.818Z,22.40
2023-01-29T22:53:28.162Z,22.40
2023-01-29T22:55:56.328Z,22.40
2023-01-29T22:58:24.623Z,22.40
2023-01-29T23:00:52.722Z,22.30
2023-01-29T23:03:21.019Z,22.30
2023-01-29T23:05:49.348Z,22.30
2023-01-29T23:08:17.520Z,22.30
2023-01-29T23:10:46.198Z,22.30
2023-01-29T23:13:14.502Z,22.30
2023-01-29T23:15:42.895Z,22.20
2023-01-29T23:18:11.114Z,22.30
2023-01-29T23:20:39.343Z,22.50
2023-01-29T23:23:07.650Z,22.70
2023-01-29T23:25:35.735Z,22.80
2023-01-29T23:28:03.982Z,23.00
2023-01-29T23:30:32.486Z,23.10
2023-01-29T23:33:00.830Z,23.10
2023-01-29T23:35:29.027Z,23.30
2023-01-29T23:37:57.610Z,23.40
2023-01-29T23:40:25.890Z,23.50
2023-01-29T23:42:54.240Z,23.50
2023-01-29T23:45:22.365Z,23.30
2023-01-29T23:47:50.604Z,23.10
2023-01-29T23:50:19.173Z,22.90
2023-01-29T23:52:47.896Z,22.80
2023-01-29T23:55:16.115Z,22.70
2023-01-29T23:57:44.482Z,22.60
